createdAt,value
2018-12-31T00:09:46.098Z,8.80
2018-12-31T00:12:14.292Z,9.10
2018-12-31T00:14:42.505Z,9.83
2018-12-31T00:29:41.930Z,8.57
2018-12-31T00:32:10.101Z,7.77
2018-12-31T00:34:38.336Z,9.17
2018-12-31T00:37:06.770Z,8.93
2018-12-31T00:51:45.355Z,7.97
2018-12-31T00:54:13.782Z,5.77
2018-12-31T00:56:42.242Z,6.63
2018-12-31T01:11:21.818Z,8.40
2018-12-31T01:13:50.258Z,7.87
2018-12-31T01:16:18.464Z,9.10
2018-12-31T01:31:09.969Z,7.43
2018-12-31T01:33:38.173Z,7.23
2018-12-31T01:36:06.401Z,6.90
2018-12-31T01:38:34.576Z,7.87
2018-12-31T01:50:05.467Z,7.53
2018-12-31T01:52:34.133Z,7.73
2018-12-31T01:55:02.327Z,5.83
2018-12-31T01:57:30.552Z,6.37
2018-12-31T02:07:56.741Z,7.70
2018-12-31T02:10:24.908Z,7.00
2018-12-31T02:12:53.116Z,7.67
2018-12-31T02:22:03.532Z,6.70
2018-12-31T02:24:31.707Z,7.20
2018-12-31T02:26:59.912Z,6.20
2018-12-31T02:29:28.087Z,7.27
2018-12-31T02:31:56.302Z,6.63
2018-12-31T02:34:24.471Z,7.33
2018-12-31T02:36:52.685Z,7.43
2018-12-31T02:39:20.857Z,7.73
2018-12-31T02:41:49.073Z,6.60
2018-12-31T02:44:17.276Z,7.77
2018-12-31T02:46:45.520Z,8.10
2018-12-31T02:49:13.984Z,7.73
2018-12-31T02:51:42.156Z,8.60
2018-12-31T02:54:10.363Z,7.97
2018-12-31T02:56:38.538Z,8.43
2018-12-31T02:59:06.742Z,7.17
2018-12-31T03:01:34.921Z,7.10
2018-12-31T03:04:03.129Z,7.07
2018-12-31T03:06:31.298Z,6.33
2018-12-31T03:08:59.511Z,6.20
2018-12-31T03:11:27.686Z,6.97
2018-12-31T03:13:55.894Z,5.90
2018-12-31T03:16:24.067Z,8.47
2018-12-31T03:18:52.281Z,8.40
2018-12-31T03:21:20.454Z,8.20
2018-12-31T03:23:48.666Z,8.20
2018-12-31T03:26:16.839Z,8.20
2018-12-31T03:28:45.062Z,7.57
2018-12-31T03:31:13.238Z,8.00
2018-12-31T03:33:41.451Z,8.60
2018-12-31T03:36:09.626Z,8.00
2018-12-31T03:38:37.847Z,8.70
2018-12-31T03:41:06.023Z,7.83
2018-12-31T03:43:34.194Z,8.17
2018-12-31T03:46:02.401Z,8.27
2018-12-31T03:48:30.566Z,9.30
2018-12-31T03:50:58.776Z,9.03
2018-12-31T03:53:26.949Z,9.37
2018-12-31T03:55:55.169Z,9.87
2018-12-31T03:58:23.577Z,9.43
2018-12-31T04:00:52.086Z,9.67
2018-12-31T04:03:20.263Z,7.63
2018-12-31T04:05:48.465Z,8.77
2018-12-31T04:08:16.642Z,9.90
2018-12-31T04:10:44.848Z,9.57
2018-12-31T04:13:13.257Z,8.37
2018-12-31T04:15:41.462Z,8.90
2018-12-31T04:18:09.630Z,9.80
2018-12-31T04:20:37.864Z,9.70
2018-12-31T04:23:06.018Z,8.63
2018-12-31T04:25:34.226Z,8.20
2018-12-31T04:28:02.401Z,9.80
2018-12-31T04:30:30.606Z,9.00
2018-12-31T04:32:59.014Z,9.43
2018-12-31T04:35:27.226Z,9.90
2018-12-31T04:37:55.634Z,9.43
2018-12-31T04:40:23.839Z,8.90
2018-12-31T04:42:52.013Z,9.63
2018-12-31T04:45:20.233Z,8.80
2018-12-31T04:47:48.412Z,9.33
2018-12-31T04:50:16.818Z,9.03
2018-12-31T04:52:45.023Z,11.17
2018-12-31T04:55:13.441Z,9.70
2018-12-31T04:57:41.637Z,9.90
2018-12-31T05:00:09.809Z,9.67
2018-12-31T05:02:38.016Z,9.97
2018-12-31T05:05:06.193Z,9.87
2018-12-31T05:07:34.401Z,9.63
2018-12-31T05:10:02.588Z,9.63
2018-12-31T05:12:30.790Z,11.67
2018-12-31T05:14:58.961Z,9.40
2018-12-31T05:17:27.178Z,11.17
2018-12-31T05:19:55.352Z,11.50
2018-12-31T05:22:23.566Z,11.80
2018-12-31T05:24:51.741Z,11.30
2018-12-31T05:27:19.964Z,11.93
2018-12-31T05:29:48.135Z,12.30
2018-12-31T05:32:16.356Z,11.70
2018-12-31T05:34:44.547Z,11.63
2018-12-31T05:37:12.755Z,11.70
2018-12-31T05:39:40.935Z,10.77
2018-12-31T05:42:09.141Z,12.27
2018-12-31T05:44:37.309Z,11.93
2018-12-31T05:47:05.522Z,11.33
2018-12-31T05:49:33.693Z,9.27
2018-12-31T05:52:02.154Z,10.63
2018-12-31T05:54:30.329Z,11.03
2018-12-31T05:56:58.502Z,11.10
2018-12-31T05:59:26.727Z,7.97
2018-12-31T06:01:54.893Z,7.37
2018-12-31T06:04:23.106Z,11.40
2018-12-31T06:06:51.514Z,11.40
2018-12-31T06:09:19.723Z,11.63
2018-12-31T06:11:47.897Z,11.03
2018-12-31T06:14:16.113Z,11.63
2018-12-31T06:16:44.526Z,11.47
2018-12-31T06:19:12.735Z,11.37
2018-12-31T06:21:40.918Z,11.70
2018-12-31T06:24:10.544Z,9.57
2018-12-31T06:26:38.906Z,12.40
2018-12-31T06:29:07.118Z,12.20
2018-12-31T06:31:35.293Z,11.80
2018-12-31T06:34:03.508Z,11.53
2018-12-31T06:36:31.685Z,11.53
2018-12-31T06:38:59.897Z,12.40
2018-12-31T06:41:28.078Z,12.10
2018-12-31T06:43:56.528Z,13.17
2018-12-31T06:46:24.938Z,12.77
2018-12-31T06:48:53.382Z,13.30
2018-12-31T06:51:21.793Z,12.50
2018-12-31T06:53:50.262Z,13.07
2018-12-31T06:56:25.918Z,13.67
2018-12-31T06:58:54.363Z,12.03
2018-12-31T07:01:22.775Z,11.93
2018-12-31T07:03:50.947Z,11.17
2018-12-31T07:06:19.164Z,12.10
2018-12-31T07:08:47.345Z,11.67
2018-12-31T07:11:15.561Z,11.27
2018-12-31T07:13:43.737Z,12.40
2018-12-31T07:16:11.944Z,11.70
2018-12-31T07:18:40.125Z,12.10
2018-12-31T07:21:08.337Z,11.27
2018-12-31T07:23:36.517Z,11.97
2018-12-31T07:26:05.030Z,12.23
2018-12-31T07:28:33.203Z,10.23
2018-12-31T07:31:01.421Z,12.00
2018-12-31T07:33:29.589Z,11.27
2018-12-31T07:35:57.805Z,11.10
2018-12-31T07:38:25.981Z,11.53
2018-12-31T07:40:54.192Z,11.30
2018-12-31T07:43:22.361Z,11.33
2018-12-31T07:45:50.569Z,12.00
2018-12-31T07:48:18.741Z,12.07
2018-12-31T07:50:46.962Z,12.03
2018-12-31T07:53:15.135Z,12.53
2018-12-31T07:55:43.344Z,13.00
2018-12-31T07:58:11.513Z,11.27
2018-12-31T08:00:39.725Z,13.13
2018-12-31T08:03:07.892Z,9.37
2018-12-31T08:05:38.674Z,11.40
2018-12-31T08:08:06.856Z,13.10
2018-12-31T08:10:35.170Z,11.20
2018-12-31T08:13:03.349Z,11.23
2018-12-31T08:15:31.874Z,11.43
2018-12-31T08:18:00.065Z,6.33
2018-12-31T08:20:28.243Z,11.40
2018-12-31T08:22:56.725Z,12.77
2018-12-31T08:25:24.883Z,12.10
2018-12-31T08:27:54.714Z,5.37
2018-12-31T08:30:22.950Z,9.83
2018-12-31T08:32:51.163Z,10.63
2018-12-31T08:35:19.337Z,9.23
2018-12-31T08:37:54.425Z,9.70
2018-12-31T08:40:23.307Z,12.70
2018-12-31T08:42:51.609Z,11.63
2018-12-31T08:53:52.734Z,10.57
2018-12-31T08:56:58.160Z,9.27
2018-12-31T08:59:26.332Z,10.20
2018-12-31T09:01:54.550Z,10.70
2018-12-31T09:04:22.729Z,13.00
2018-12-31T09:15:47.425Z,10.70
2018-12-31T09:18:15.629Z,11.30
2018-12-31T09:20:43.806Z,13.43
2018-12-31T09:23:12.017Z,10.37
2018-12-31T09:29:04.884Z,14.30
2018-12-31T09:37:17.580Z,8.00
2018-12-31T09:39:45.797Z,13.00
2018-12-31T09:51:56.619Z,10.43
2018-12-31T09:54:24.821Z,11.20
2018-12-31T09:56:53.003Z,13.17
2018-12-31T09:59:21.210Z,11.70
2018-12-31T10:01:49.387Z,21.80
2018-12-31T10:04:17.600Z,10.90
2018-12-31T10:06:45.768Z,10.07
2018-12-31T10:09:13.977Z,8.90
2018-12-31T10:11:42.154Z,11.73
2018-12-31T10:14:10.366Z,10.97
2018-12-31T10:16:38.536Z,13.40
2018-12-31T10:19:06.742Z,13.27
2018-12-31T10:21:40.978Z,12.63
2018-12-31T10:24:04.769Z,11.77
2018-12-31T10:26:32.941Z,12.23
2018-12-31T10:29:01.150Z,12.37
2018-12-31T10:31:29.333Z,11.10
2018-12-31T10:33:57.501Z,12.17
2018-12-31T10:36:25.709Z,9.77
2018-12-31T10:38:53.881Z,12.87
2018-12-31T10:41:22.094Z,11.00
2018-12-31T10:43:50.263Z,9.27
2018-12-31T10:46:18.469Z,10.70
2018-12-31T10:48:46.636Z,13.20
2018-12-31T10:51:15.085Z,13.10
2018-12-31T10:53:43.494Z,12.07
2018-12-31T10:56:11.936Z,8.73
2018-12-31T10:58:40.108Z,10.90
2018-12-31T11:01:08.318Z,12.97
2018-12-31T11:03:36.490Z,11.10
2018-12-31T11:06:04.694Z,9.50
2018-12-31T11:08:32.866Z,10.60
2018-12-31T11:11:01.075Z,10.97
2018-12-31T11:13:29.246Z,10.50
2018-12-31T11:15:57.457Z,11.73
2018-12-31T11:18:25.866Z,12.67
2018-12-31T11:20:54.074Z,13.93
2018-12-31T11:23:22.246Z,10.33
2018-12-31T11:25:50.456Z,12.80
2018-12-31T11:28:18.628Z,11.23
2018-12-31T11:30:46.836Z,9.93
2018-12-31T11:33:15.006Z,12.67
2018-12-31T11:35:43.220Z,12.53
2018-12-31T11:38:11.393Z,13.47
2018-12-31T11:40:39.604Z,12.43
2018-12-31T11:43:08.014Z,11.70
2018-12-31T11:45:36.457Z,12.87
2018-12-31T11:48:04.868Z,11.57
2018-12-31T11:50:33.322Z,13.07
2018-12-31T11:53:01.492Z,13.20
2018-12-31T11:55:29.664Z,13.13
2018-12-31T11:57:57.873Z,13.30
2018-12-31T12:00:26.045Z,10.10
2018-12-31T12:02:54.485Z,11.47
2018-12-31T12:05:22.661Z,13.87
2018-12-31T12:07:50.868Z,13.17
2018-12-31T12:10:19.041Z,13.43
2018-12-31T12:12:47.243Z,11.70
2018-12-31T12:15:15.417Z,11.20
2018-12-31T12:17:43.870Z,10.23
2018-12-31T12:20:12.546Z,14.80
2018-12-31T12:22:40.749Z,13.27
2018-12-31T12:25:08.923Z,12.00
2018-12-31T12:27:37.136Z,9.83
2018-12-31T12:30:07.982Z,10.90
2018-12-31T12:32:36.433Z,10.43
2018-12-31T12:35:04.971Z,6.70
2018-12-31T12:37:33.186Z,10.40
2018-12-31T12:40:01.386Z,9.83
2018-12-31T12:42:29.793Z,10.03
2018-12-31T12:44:57.966Z,11.33
2018-12-31T12:47:26.178Z,10.20
2018-12-31T12:49:54.340Z,11.43
2018-12-31T12:52:22.552Z,9.07
2018-12-31T12:54:50.720Z,11.40
2018-12-31T12:57:18.927Z,9.23
2018-12-31T12:59:47.299Z,12.60
2018-12-31T13:02:15.517Z,10.03
2018-12-31T13:04:43.680Z,11.43
2018-12-31T13:07:11.890Z,8.67
2018-12-31T13:09:40.068Z,11.17
2018-12-31T13:12:08.538Z,10.63
2018-12-31T13:14:36.748Z,11.53
2018-12-31T13:17:04.929Z,13.80
2018-12-31T13:19:33.135Z,15.10
2018-12-31T13:22:01.308Z,14.33
2018-12-31T13:24:29.520Z,12.50
2018-12-31T13:26:57.698Z,12.20
2018-12-31T13:29:25.905Z,10.83
2018-12-31T13:31:54.083Z,11.50
2018-12-31T13:34:22.525Z,10.33
2018-12-31T13:36:50.934Z,12.00
2018-12-31T13:39:19.137Z,11.10
2018-12-31T13:41:47.551Z,11.17
2018-12-31T13:44:15.998Z,10.10
2018-12-31T13:46:44.404Z,10.90
2018-12-31T13:49:12.854Z,10.80
2018-12-31T13:51:41.023Z,9.93
2018-12-31T13:54:09.234Z,11.40
2018-12-31T13:56:37.641Z,11.20
2018-12-31T13:59:06.085Z,10.90
2018-12-31T14:01:34.493Z,11.27
2018-12-31T14:04:03.141Z,11.07
2018-12-31T14:06:31.549Z,11.70
2018-12-31T14:08:59.830Z,11.63
2018-12-31T14:11:28.240Z,11.80
2018-12-31T14:13:56.685Z,11.67
2018-12-31T14:16:25.157Z,12.53
2018-12-31T14:18:53.869Z,11.20
2018-12-31T14:21:22.280Z,11.87
2018-12-31T14:23:50.451Z,12.20
2018-12-31T14:26:18.889Z,12.30
2018-12-31T14:28:47.702Z,12.17
2018-12-31T14:31:16.146Z,10.67
2018-12-31T14:33:44.562Z,13.00
2018-12-31T14:36:12.768Z,11.50
2018-12-31T14:38:40.944Z,11.43
2018-12-31T14:41:09.149Z,12.23
2018-12-31T14:43:37.564Z,9.43
2018-12-31T14:46:06.010Z,11.97
2018-12-31T14:48:34.183Z,11.87
2018-12-31T14:51:02.392Z,11.67
2018-12-31T14:53:30.565Z,10.37
2018-12-31T14:55:59.015Z,10.93
2018-12-31T14:58:27.422Z,11.83
2018-12-31T15:00:55.873Z,12.13
2018-12-31T15:03:25.647Z,12.03
2018-12-31T15:05:53.957Z,11.93
2018-12-31T15:08:22.427Z,13.10
2018-12-31T15:10:50.645Z,11.53
2018-12-31T15:13:19.054Z,9.80
2018-12-31T15:15:47.257Z,9.83
2018-12-31T15:18:15.738Z,9.80
2018-12-31T15:20:46.070Z,8.77
2018-12-31T15:23:14.317Z,10.07
2018-12-31T15:25:42.524Z,10.53
2018-12-31T15:28:10.705Z,10.37
2018-12-31T15:30:39.109Z,33.03
2018-12-31T15:33:07.858Z,13.50
2018-12-31T15:35:36.274Z,12.10
2018-12-31T15:38:04.715Z,11.53
2018-12-31T15:40:33.133Z,11.10
2018-12-31T15:43:01.578Z,10.90
2018-12-31T15:45:29.751Z,11.03
2018-12-31T15:47:58.311Z,12.53
2018-12-31T15:50:26.704Z,12.17
2018-12-31T15:52:55.149Z,11.70
2018-12-31T15:55:23.322Z,10.27
2018-12-31T15:57:51.838Z,10.97
2018-12-31T16:00:20.440Z,9.70
2018-12-31T16:02:48.659Z,12.87
2018-12-31T16:05:16.845Z,14.67
2018-12-31T16:07:46.116Z,18.47
2018-12-31T16:10:14.698Z,15.37
2018-12-31T16:12:43.548Z,15.57
2018-12-31T16:15:11.956Z,16.13
2018-12-31T16:17:40.405Z,16.10
2018-12-31T16:20:08.573Z,17.37
2018-12-31T16:22:36.789Z,16.70
2018-12-31T16:25:05.203Z,13.43
2018-12-31T16:27:33.654Z,12.70
2018-12-31T16:30:02.067Z,12.23
2018-12-31T16:32:30.277Z,11.60
2018-12-31T16:34:58.453Z,9.40
2018-12-31T16:37:26.669Z,9.60
2018-12-31T16:39:54.845Z,10.17
2018-12-31T16:42:23.058Z,8.97
2018-12-31T16:44:51.232Z,11.20
2018-12-31T16:47:19.761Z,11.87
2018-12-31T16:49:47.953Z,10.13
2018-12-31T16:52:16.465Z,12.10
2018-12-31T16:54:44.667Z,9.87
2018-12-31T16:57:12.849Z,10.23
2018-12-31T16:59:41.053Z,9.50
2018-12-31T17:02:09.462Z,10.37
2018-12-31T17:04:37.669Z,10.63
2018-12-31T17:07:05.852Z,13.00
2018-12-31T17:09:34.066Z,13.33
2018-12-31T17:12:02.240Z,13.77
2018-12-31T17:14:30.689Z,14.30
2018-12-31T17:16:59.106Z,13.50
2018-12-31T17:19:27.959Z,11.87
2018-12-31T17:21:56.133Z,10.57
2018-12-31T17:24:24.588Z,9.93
2018-12-31T17:26:53.017Z,9.13
2018-12-31T17:29:21.230Z,10.90
2018-12-31T17:31:49.482Z,12.27
2018-12-31T17:34:17.929Z,13.60
2018-12-31T17:36:46.105Z,11.90
2018-12-31T17:39:18.188Z,10.47
2018-12-31T17:41:46.361Z,11.87
2018-12-31T17:44:14.577Z,11.83
2018-12-31T17:46:42.757Z,10.77
2018-12-31T17:49:10.960Z,10.67
2018-12-31T17:51:39.138Z,9.50
2018-12-31T17:54:07.352Z,10.40
2018-12-31T17:56:35.758Z,9.60
2018-12-31T17:59:05.007Z,10.37
2018-12-31T18:01:33.193Z,10.63
2018-12-31T18:04:01.410Z,10.90
2018-12-31T18:06:29.595Z,12.73
2018-12-31T18:08:57.805Z,16.73
2018-12-31T18:11:26.387Z,21.63
2018-12-31T18:13:54.561Z,37.70
2018-12-31T18:16:30.375Z,26.30
2018-12-31T18:18:59.353Z,17.87
2018-12-31T18:21:27.557Z,13.10
2018-12-31T18:23:56.620Z,13.00
2018-12-31T18:26:30.291Z,12.20
2018-12-31T18:28:58.685Z,12.30
2018-12-31T18:31:27.720Z,12.13
2018-12-31T18:33:56.260Z,12.63
2018-12-31T18:36:29.556Z,9.90
2018-12-31T18:39:09.442Z,11.17
2018-12-31T18:42:05.700Z,11.57
2018-12-31T18:44:33.825Z,14.43
2018-12-31T18:47:02.036Z,14.43
2018-12-31T18:49:30.469Z,14.40
2018-12-31T18:51:58.900Z,14.50
2018-12-31T18:54:27.371Z,16.30
2018-12-31T18:56:55.585Z,15.73
2018-12-31T18:59:24.302Z,13.40
2018-12-31T19:01:52.504Z,15.47
2018-12-31T19:04:20.917Z,13.70
2018-12-31T19:06:49.766Z,13.97
2018-12-31T19:09:17.953Z,13.10
2018-12-31T19:11:46.398Z,15.13
2018-12-31T19:14:14.806Z,15.40
2018-12-31T19:16:43.018Z,15.13
2018-12-31T19:19:11.190Z,14.87
2018-12-31T19:21:39.408Z,12.67
2018-12-31T19:24:07.580Z,14.77
2018-12-31T19:26:35.762Z,15.17
2018-12-31T19:29:03.988Z,14.10
2018-12-31T19:31:32.160Z,14.80
2018-12-31T19:34:00.676Z,13.70
2018-12-31T19:36:28.848Z,12.03
2018-12-31T19:38:57.305Z,13.23
2018-12-31T19:41:25.721Z,12.17
2018-12-31T19:43:53.932Z,13.03
2018-12-31T19:46:22.354Z,14.23
2018-12-31T19:48:50.796Z,13.90
2018-12-31T19:51:19.282Z,11.57
2018-12-31T20:30:32.412Z,15.60
2018-12-31T20:33:01.033Z,15.40
2018-12-31T20:35:29.478Z,17.33
2018-12-31T20:37:57.660Z,13.53
2018-12-31T20:40:26.109Z,17.17
2018-12-31T20:42:54.565Z,15.10
2018-12-31T20:45:22.742Z,15.27
2018-12-31T20:47:51.191Z,16.47
2018-12-31T20:50:19.668Z,19.20
2018-12-31T20:52:47.847Z,18.17
2018-12-31T20:55:16.297Z,15.03
2018-12-31T20:57:44.472Z,13.80
2018-12-31T21:00:12.691Z,15.07
2018-12-31T21:02:41.094Z,16.33
2018-12-31T21:05:11.414Z,15.93
2018-12-31T21:07:39.374Z,14.53
2018-12-31T21:10:10.927Z,14.37
2018-12-31T21:12:40.273Z,15.63
2018-12-31T21:15:08.616Z,15.53
2018-12-31T21:17:37.024Z,16.33
2018-12-31T21:20:07.714Z,15.73
2018-12-31T21:22:35.893Z,18.47
2018-12-31T21:25:04.275Z,15.50
2018-12-31T21:27:32.686Z,17.83
2018-12-31T21:30:01.202Z,17.63
2018-12-31T21:32:29.622Z,17.10
2018-12-31T21:34:58.073Z,16.57
2018-12-31T21:37:26.558Z,15.03
2018-12-31T21:39:55.037Z,14.60
2018-12-31T21:42:23.445Z,15.80
2018-12-31T21:44:51.894Z,17.30
2018-12-31T21:47:20.308Z,18.20
2018-12-31T21:49:48.516Z,15.50
2018-12-31T21:52:16.932Z,16.40
2018-12-31T21:54:45.674Z,16.63
2018-12-31T21:57:14.083Z,14.57
2018-12-31T21:59:42.296Z,15.83
2018-12-31T22:08:38.394Z,16.10
2018-12-31T22:11:25.004Z,15.17
2018-12-31T22:13:53.418Z,14.37
2018-12-31T22:16:23.190Z,16.97
2018-12-31T22:18:51.606Z,16.63
2018-12-31T22:21:19.818Z,15.90
2018-12-31T22:23:48.225Z,14.53
2018-12-31T22:26:16.677Z,16.30
2018-12-31T22:28:45.185Z,13.90
2018-12-31T22:31:13.641Z,19.53
2018-12-31T22:33:43.749Z,16.43
2018-12-31T22:36:11.957Z,12.83
2018-12-31T22:38:41.431Z,13.43
2018-12-31T22:41:09.989Z,15.30
2018-12-31T22:43:38.398Z,14.53
2018-12-31T22:46:06.839Z,15.87
2018-12-31T22:48:38.431Z,14.63
2018-12-31T22:51:06.872Z,16.33
2018-12-31T22:53:35.877Z,15.83
2018-12-31T22:56:04.324Z,20.50
2018-12-31T22:58:32.733Z,38.10
2018-12-31T23:01:01.268Z,36.60
2018-12-31T23:03:29.465Z,32.67
2018-12-31T23:05:57.972Z,97.30
2018-12-31T23:08:26.184Z,145.37
2018-12-31T23:10:56.265Z,137.43
2018-12-31T23:13:26.394Z,115.57
2018-12-31T23:15:54.870Z,92.13
2018-12-31T23:18:23.296Z,89.23
2018-12-31T23:20:55.446Z,72.80
2018-12-31T23:23:27.682Z,56.03
2018-12-31T23:25:58.116Z,72.17
2018-12-31T23:28:28.333Z,49.27
2018-12-31T23:31:01.487Z,32.43
2018-12-31T23:33:30.397Z,33.77
2018-12-31T23:36:03.868Z,33.23
2018-12-31T23:44:22.484Z,67.03
2018-12-31T23:49:39.621Z,48.33
2018-12-31T23:52:16.373Z,41.93
2018-12-31T23:54:52.133Z,38.47
2018-12-31T23:57:23.221Z,31.70
2018-12-31T23:59:51.850Z,31.80
